Portada
METAR-TAF:

METAR-TAF

Aeroports :

Vanua Lava, Vanuatu

latitud: 13-51-06S, longitud: 167-32-13E, altitud: 2 m

Observació

L'informe es va fer fa 4 hores i 33 minuts, a les 06:00 UTC
Vent calma
Temperatura 28°C
Humitat 84%
Pressió 1011 hPa
Visibilitat 10 km o més
Núvols disperses a una alçada de 2000 ft
Cel ennuvolat a una alçada de 30000 ft

METAR: NVSC 050600Z 00000KT 9999 SCT020 BKN300 28/25 Q1011

Hora: 21:33 (10:33 UTC)

Pronòstic

L'informe es va fer fa 5 hores i 33 minuts, a les 05:00 UTC
Pronòstic vàlid del 05 a les 06 UTC al 06 a les 06 UTC
Vent 10 kt del Est/Sud-Est
Visibilitat: 9000 m
Cel ennuvolat a una alçada de 2000 ft
Cel ennuvolat a una alçada de 1800 ft
xàfecs de pluja

TAF: NVSC 050500Z 0506/0606 11010KT 9999 BKN020 INTER 0506/0512 9000 -SHRA BKN018

Observacions i pronòstics meteorològics de més de 4000 aeroports (METAR i TAF).

Les estacions disponibles són els punts grocs i vermells al mapa.

Posi el ratolí al punt desitjat per veure el nom de l'estació.

Feu clic per veure les observacions i els pronòstics meteorològics.

Per canviar el mapa: feu clic els botons verds amb una creu de color negre per apropar; al botó verd amb un guió per allunyar la imatge; o en les fletxes verdes per a mapes adjacents.


METAR-TAF: